Time;durP1;ratioP1;P1;durP2;ratioP2;P2;SDS_P1;SDS_P2;PMS_P1;PMS_P2;Temp;Humidity;BMP_temperature;BMP_pressure;BME280_temperature;BME280_humidity;BME280_pressure;Samples;Min_cycle;Max_cycle;Signal;HPM_P1;HPM_P2
2024/01/19 00:01:56;;;;;;;;;;;;;;;-3.99;98.26;101316.97;5049925;28;20295;-68
2024/01/19 00:04:21;;;;;;;;;;;;;;;-3.95;98.71;101318.91;5046683;28;20395;-68
2024/01/19 00:06:48;;;;;;;;;;;;;;;-3.91;98.84;101325.06;5047989;28;19928;-68
2024/01/19 00:09:15;;;;;;;;;;;;;;;-3.93;99.69;101324.09;5062918;28;20395;-68
2024/01/19 00:11:41;;;;;;;;;;;;;;;-3.96;99.67;101319.69;5066600;28;19928;-68
2024/01/19 00:14:06;;;;;;;;;;;;;;;-3.97;99.72;101317.91;5050994;28;19920;-68
2024/01/19 00:16:32;;;;;;;;;;;;;;;-3.98;100.00;101326.38;5068126;28;20423;-69
2024/01/19 00:18:57;;;;;;;;;;;;;;;-4.02;100.00;101322.78;5070868;28;19981;-68
2024/01/19 00:21:23;;;;;;;;;;;;;;;-4.08;99.78;101325.03;5057237;28;20323;-69
2024/01/19 00:23:49;;;;;;;;;;;;;;;-4.09;98.89;101320.69;5055702;28;19920;-69
2024/01/19 00:26:15;;;;;;;;;;;;;;;-4.08;99.27;101324.13;5053615;28;20414;-68
2024/01/19 00:28:41;;;;;;;;;;;;;;;-4.11;100.00;101324.81;5067434;28;19924;-68
2024/01/19 00:31:06;;;;;;;;;;;;;;;-4.15;100.00;101327.13;5052103;28;19927;-68
2024/01/19 00:33:31;;;;;;;;;;;;;;;-4.19;100.00;101342.31;5050236;28;19966;-68
2024/01/19 00:35:57;;;;;;;;;;;;;;;-4.24;98.67;101323.28;5046294;28;19942;-69
2024/01/19 00:38:22;;;;;;;;;;;;;;;-4.25;100.00;101349.66;5045951;28;19928;-69
2024/01/19 00:40:47;;;;;;;;;;;;;;;-4.29;99.41;101341.75;5051218;28;19967;-69
2024/01/19 00:43:16;;;;;;;;;;;;;;;-4.32;100.00;101345.00;5045945;28;19920;-68
2024/01/19 00:45:42;;;;;;;;;;;;;;;-4.32;100.00;101346.66;5065914;28;20427;-68
2024/01/19 00:48:07;;;;;;;;;;;;;;;-4.32;100.00;101350.13;5046458;28;20014;-68
2024/01/19 00:50:35;;;;;;;;;;;;;;;-4.30;99.94;101356.19;5055326;28;19928;-68
2024/01/19 00:53:00;;;;;;;;;;;;;;;-4.32;100.00;101356.88;5050563;28;20027;-68
2024/01/19 00:55:26;;;;;;;;;;;;;;;-4.33;100.00;101368.81;5065784;28;20435;-68
2024/01/19 00:57:51;;;;;;;;;;;;;;;-4.35;100.00;101372.97;5050104;28;19966;-68
2024/01/19 01:00:16;;;;;;;;;;;;;;;-4.34;100.00;101367.03;5042408;28;19959;-68
2024/01/19 01:02:42;;;;;;;;;;;;;;;-4.29;100.00;101380.13;5070934;28;19923;-68
2024/01/19 01:05:07;;;;;;;;;;;;;;;-4.25;100.00;101364.13;5055239;28;20441;-68
2024/01/19 01:07:33;;;;;;;;;;;;;;;-4.16;100.00;101371.47;5051433;28;19924;-68
2024/01/19 01:09:58;;;;;;;;;;;;;;;-4.15;100.00;101371.56;5068573;28;20355;-68
2024/01/19 01:12:23;;;;;;;;;;;;;;;-4.14;100.00;101369.88;5055218;28;19920;-68
2024/01/19 01:14:49;;;;;;;;;;;;;;;-4.14;100.00;101374.97;5047732;28;19927;-68
2024/01/19 01:17:14;;;;;;;;;;;;;;;-4.13;100.00;101381.88;5050847;28;20164;-68
2024/01/19 01:19:40;;;;;;;;;;;;;;;-4.08;100.00;101381.34;5049295;28;19920;-68
2024/01/19 01:22:05;;;;;;;;;;;;;;;-3.99;100.00;101386.09;5069463;28;19925;-68
2024/01/19 01:24:31;;;;;;;;;;;;;;;-3.94;98.57;101368.41;5054065;28;19931;-68
2024/01/19 01:26:57;;;;;;;;;;;;;;;-3.75;96.75;101373.78;5051217;28;19928;-68
2024/01/19 01:29:22;;;;;;;;;;;;;;;-3.67;96.44;101375.03;5048820;28;19925;-68
2024/01/19 01:31:50;;;;;;;;;;;;;;;-3.64;97.45;101381.16;5047729;28;19923;-68
2024/01/19 01:34:16;;;;;;;;;;;;;;;-3.61;99.64;101394.13;5054738;28;20606;-68
2024/01/19 01:36:44;;;;;;;;;;;;;;;-3.54;99.88;101407.34;5064444;28;19996;-68
2024/01/19 01:39:11;;;;;;;;;;;;;;;-3.49;100.00;101393.09;5065198;28;19923;-68
2024/01/19 01:41:37;;;;;;;;;;;;;;;-3.43;100.00;101386.53;5068919;28;19947;-69
2024/01/19 01:44:04;;;;;;;;;;;;;;;-3.37;98.17;101384.31;5052146;28;19928;-69
2024/01/19 01:46:30;;;;;;;;;;;;;;;-3.34;98.88;101387.03;5053147;28;20375;-69
2024/01/19 01:48:55;;;;;;;;;;;;;;;-3.33;96.99;101386.25;5070556;28;19927;-69
2024/01/19 01:51:21;;;;;;;;;;;;;;;-3.36;98.13;101389.53;5046584;28;19924;-69
2024/01/19 01:53:47;;;;;;;;;;;;;;;-3.44;99.84;101387.34;5042855;28;19920;-69
2024/01/19 01:56:13;;;;;;;;;;;;;;;-3.48;99.86;101399.09;5068030;28;20341;-68
2024/01/19 01:58:38;;;;;;;;;;;;;;;-3.53;100.00;101395.44;5068061;28;20315;-68
2024/01/19 02:01:04;;;;;;;;;;;;;;;-3.53;100.00;101398.88;5066093;28;19924;-68
2024/01/19 02:03:30;;;;;;;;;;;;;;;-3.56;100.00;101391.00;5070344;28;19962;-68
2024/01/19 02:05:58;;;;;;;;;;;;;;;-3.57;100.00;101399.50;5054882;28;19923;-68
2024/01/19 02:08:23;;;;;;;;;;;;;;;-3.62;100.00;101403.50;5047433;28;19920;-68
2024/01/19 02:10:48;;;;;;;;;;;;;;;-3.65;100.00;101405.88;5054117;28;19931;-68
2024/01/19 02:13:15;;;;;;;;;;;;;;;-3.69;100.00;101409.94;5069770;28;20158;-69
2024/01/19 02:15:40;;;;;;;;;;;;;;;-3.75;100.00;101413.84;5064929;28;19925;-68
2024/01/19 02:18:06;;;;;;;;;;;;;;;-3.81;100.00;101419.50;5089731;28;19928;-68
2024/01/19 02:20:31;;;;;;;;;;;;;;;-3.84;100.00;101424.47;5066536;28;20606;-68
2024/01/19 02:22:57;;;;;;;;;;;;;;;-3.85;100.00;101425.25;5059870;28;19994;-68
2024/01/19 02:25:22;;;;;;;;;;;;;;;-3.91;100.00;101425.78;5044526;28;19925;-68
2024/01/19 02:27:48;;;;;;;;;;;;;;;-3.95;100.00;101434.13;5031447;28;20380;-68
2024/01/19 02:30:15;;;;;;;;;;;;;;;-4.02;100.00;101432.00;5033946;28;20003;-69
2024/01/19 02:32:40;;;;;;;;;;;;;;;-4.06;100.00;101440.31;5052160;28;19982;-68
2024/01/19 02:35:06;;;;;;;;;;;;;;;-4.11;100.00;101447.69;5036465;28;19920;-68
2024/01/19 02:37:31;;;;;;;;;;;;;;;-4.14;100.00;101441.53;5051940;28;20364;-68
2024/01/19 02:39:56;;;;;;;;;;;;;;;-4.19;100.00;101448.94;5035435;28;21221;-68
2024/01/19 02:42:22;;;;;;;;;;;;;;;-4.23;100.00;101445.31;5035207;28;19921;-68
2024/01/19 02:44:47;;;;;;;;;;;;;;;-4.21;100.00;101448.88;5034906;28;19928;-68
2024/01/19 02:47:13;;;;;;;;;;;;;;;-4.20;100.00;101462.53;5032825;28;19968;-68
2024/01/19 02:49:38;;;;;;;;;;;;;;;-4.21;100.00;101463.31;5052428;28;20535;-68
2024/01/19 02:52:03;;;;;;;;;;;;;;;-4.23;100.00;101463.22;5035185;28;20438;-68
2024/01/19 02:54:29;;;;;;;;;;;;;;;-4.26;100.00;101465.63;5051965;28;19921;-68
2024/01/19 02:56:54;;;;;;;;;;;;;;;-4.28;100.00;101468.88;5035397;28;20090;-68
2024/01/19 02:59:19;;;;;;;;;;;;;;;-4.33;100.00;101471.16;5035830;28;19928;-68
2024/01/19 03:01:45;;;;;;;;;;;;;;;-4.38;100.00;101467.47;5051466;28;19924;-68
2024/01/19 03:04:10;;;;;;;;;;;;;;;-4.40;100.00;101477.59;5039661;28;19925;-68
2024/01/19 03:06:35;;;;;;;;;;;;;;;-4.41;100.00;101475.84;5055863;28;20763;-68
2024/01/19 03:09:01;;;;;;;;;;;;;;;-4.39;100.00;101476.81;5055673;28;20346;-68
2024/01/19 03:11:26;;;;;;;;;;;;;;;-4.40;100.00;101474.16;5038413;28;20380;-68
2024/01/19 03:13:53;;;;;;;;;;;;;;;-4.43;100.00;101474.00;5037319;28;19943;-68
2024/01/19 03:16:18;;;;;;;;;;;;;;;-4.45;100.00;101476.47;5039130;28;19920;-69
2024/01/19 03:18:43;;;;;;;;;;;;;;;-4.42;100.00;101475.75;5037572;28;19927;-69
2024/01/19 03:21:11;;;;;;;;;;;;;;;-4.38;100.00;101477.72;5036893;28;19924;-69
2024/01/19 03:23:36;;;;;;;;;;;;;;;-4.38;100.00;101475.16;5055435;28;20280;-69
2024/01/19 03:26:02;;;;;;;;;;;;;;;-4.38;100.00;101477.72;5049310;28;19935;-69
2024/01/19 03:28:27;;;;;;;;;;;;;;;-4.41;100.00;101487.75;5046809;28;20359;-69
2024/01/19 03:30:53;;;;;;;;;;;;;;;-4.45;100.00;101486.69;5054594;28;19926;-69
2024/01/19 03:33:18;;;;;;;;;;;;;;;-4.43;100.00;101489.34;5050852;28;19920;-69
2024/01/19 03:35:43;;;;;;;;;;;;;;;-4.43;100.00;101484.22;5052022;28;19921;-69
2024/01/19 03:38:09;;;;;;;;;;;;;;;-4.41;100.00;101480.06;5054385;28;19966;-69
2024/01/19 03:40:34;;;;;;;;;;;;;;;-4.37;100.00;101484.56;5051256;28;20030;-69
2024/01/19 03:42:59;;;;;;;;;;;;;;;-4.35;100.00;101483.00;5052804;28;19935;-69
2024/01/19 03:45:25;;;;;;;;;;;;;;;-4.33;100.00;101483.97;5076397;28;19924;-69
2024/01/19 03:47:50;;;;;;;;;;;;;;;-4.33;100.00;101478.84;5073801;28;19975;-69
2024/01/19 03:50:15;;;;;;;;;;;;;;;-4.29;100.00;101480.81;5056243;28;19920;-69
2024/01/19 03:52:41;;;;;;;;;;;;;;;-4.22;100.00;101490.59;5046349;28;20345;-68
2024/01/19 03:55:07;;;;;;;;;;;;;;;-4.18;100.00;101491.66;5053221;28;19928;-68
2024/01/19 03:57:32;;;;;;;;;;;;;;;-4.11;100.00;101500.56;5061434;28;19917;-68
2024/01/19 03:59:57;;;;;;;;;;;;;;;-4.08;100.00;101493.06;5072231;28;19928;-68
2024/01/19 04:02:23;;;;;;;;;;;;;;;-4.05;100.00;101485.56;5048432;28;19921;-68
2024/01/19 04:04:49;;;;;;;;;;;;;;;-4.03;100.00;101492.53;5056760;28;19920;-69
2024/01/19 04:07:14;;;;;;;;;;;;;;;-3.98;100.00;101490.25;5066499;28;19927;-69
2024/01/19 04:09:40;;;;;;;;;;;;;;;-3.93;100.00;101496.53;5056882;28;19920;-69
2024/01/19 04:12:16;;;;;;;;;;;;;;;-3.90;100.00;101499.25;5055742;28;19924;-71
2024/01/19 04:14:42;;;;;;;;;;;;;;;-3.86;100.00;101505.44;5072883;28;19928;-69
2024/01/19 04:17:08;;;;;;;;;;;;;;;-3.88;100.00;101502.81;5070306;28;19916;-69
2024/01/19 04:19:33;;;;;;;;;;;;;;;-3.86;100.00;101503.75;5058249;28;20392;-69
2024/01/19 04:21:58;;;;;;;;;;;;;;;-3.82;100.00;101512.53;5051053;28;20027;-69
2024/01/19 04:24:24;;;;;;;;;;;;;;;-3.80;100.00;101515.16;5063739;28;19919;-68
2024/01/19 04:26:50;;;;;;;;;;;;;;;-3.77;100.00;101521.34;5049078;28;19996;-68
2024/01/19 04:29:15;;;;;;;;;;;;;;;-3.75;100.00;101523.97;5068753;28;20399;-68
2024/01/19 04:31:40;;;;;;;;;;;;;;;-3.77;100.00;101525.59;5062835;28;19974;-69
2024/01/19 04:34:06;;;;;;;;;;;;;;;-3.78;100.00;101524.69;5072551;28;20399;-68
2024/01/19 04:36:31;;;;;;;;;;;;;;;-3.76;100.00;101527.34;5066377;28;20373;-68
2024/01/19 04:39:00;;;;;;;;;;;;;;;-3.71;100.00;101536.16;5052429;28;20337;-68
2024/01/19 04:41:25;;;;;;;;;;;;;;;-3.72;100.00;101531.84;5076084;28;19923;-68
2024/01/19 04:43:50;;;;;;;;;;;;;;;-3.71;100.00;101536.16;5059287;28;19920;-69
2024/01/19 04:46:16;;;;;;;;;;;;;;;-3.70;100.00;101540.50;5057562;28;19920;-69
2024/01/19 04:48:41;;;;;;;;;;;;;;;-3.66;100.00;101547.56;5056620;28;19924;-68
2024/01/19 04:51:06;;;;;;;;;;;;;;;-3.66;100.00;101545.03;5048604;28;19920;-69
2024/01/19 04:53:33;;;;;;;;;;;;;;;-3.68;100.00;101554.28;5071068;28;19942;-69
2024/01/19 04:55:58;;;;;;;;;;;;;;;-3.68;100.00;101555.19;5057059;28;20253;-69
2024/01/19 04:58:24;;;;;;;;;;;;;;;-3.66;100.00;101552.69;5072353;28;19920;-68
2024/01/19 05:00:49;;;;;;;;;;;;;;;-3.64;100.00;101553.66;5051449;28;19921;-68
2024/01/19 05:03:15;;;;;;;;;;;;;;;-3.63;100.00;101560.56;5052362;28;19932;-69
2024/01/19 05:05:40;;;;;;;;;;;;;;;-3.63;100.00;101554.53;5062735;28;19920;-69
2024/01/19 05:08:06;;;;;;;;;;;;;;;-3.60;100.00;101570.09;5067190;28;20021;-68
2024/01/19 05:10:32;;;;;;;;;;;;;;;-3.63;100.00;101562.22;5050554;28;19928;-69
2024/01/19 05:12:57;;;;;;;;;;;;;;;-3.65;100.00;101554.44;5064674;28;20557;-68
2024/01/19 05:15:23;;;;;;;;;;;;;;;-3.68;100.00;101560.31;5040170;28;20019;-68
2024/01/19 05:17:48;;;;;;;;;;;;;;;-3.67;100.00;101564.59;5049418;28;19921;-68
2024/01/19 05:20:13;;;;;;;;;;;;;;;-3.69;100.00;101579.00;5051996;28;19923;-68
2024/01/19 05:22:39;;;;;;;;;;;;;;;-3.69;100.00;101588.41;5045194;28;20001;-69
2024/01/19 05:25:04;;;;;;;;;;;;;;;-3.69;100.00;101588.41;5072454;28;19970;-69
2024/01/19 05:27:30;;;;;;;;;;;;;;;-3.70;100.00;101590.06;5048010;28;19951;-69
2024/01/19 05:29:55;;;;;;;;;;;;;;;-3.70;100.00;101591.75;5046120;28;19960;-68
2024/01/19 05:32:21;;;;;;;;;;;;;;;-3.74;100.00;101598.34;5049387;28;19959;-69
2024/01/19 05:34:46;;;;;;;;;;;;;;;-3.77;100.00;101607.53;5073917;28;20407;-69
2024/01/19 05:37:12;;;;;;;;;;;;;;;-3.79;100.00;101612.56;5061447;28;20011;-69
2024/01/19 05:39:37;;;;;;;;;;;;;;;-3.78;100.00;101611.75;5053641;28;19963;-69
2024/01/19 05:42:02;;;;;;;;;;;;;;;-3.79;100.00;101619.34;5063415;28;19921;-69
2024/01/19 05:44:28;;;;;;;;;;;;;;;-3.82;100.00;101625.22;5057198;28;19925;-69
2024/01/19 05:46:53;;;;;;;;;;;;;;;-3.81;100.00;101631.19;5056795;28;20368;-69
2024/01/19 05:49:18;;;;;;;;;;;;;;;-3.81;100.00;101626.06;5059470;28;20022;-69
2024/01/19 05:51:44;;;;;;;;;;;;;;;-3.76;100.00;101638.38;5038916;28;19940;-68
2024/01/19 05:54:09;;;;;;;;;;;;;;;-3.72;100.00;101648.00;5088886;28;20298;-69
2024/01/19 05:56:35;;;;;;;;;;;;;;;-3.66;100.00;101647.50;5056613;28;19928;-71
2024/01/19 05:59:00;;;;;;;;;;;;;;;-3.58;100.00;101658.16;5054484;28;19924;-70
2024/01/19 06:01:26;;;;;;;;;;;;;;;-3.49;100.00;101680.09;5049779;28;19955;-70
2024/01/19 06:03:54;;;;;;;;;;;;;;;-3.42;100.00;101685.56;5056835;28;19924;-70
2024/01/19 06:06:20;;;;;;;;;;;;;;;-3.28;100.00;101699.22;5053244;28;19920;-70
2024/01/19 06:08:45;;;;;;;;;;;;;;;-3.17;100.00;101701.59;5051550;28;19935;-70
2024/01/19 06:11:10;;;;;;;;;;;;;;;-3.12;100.00;101699.28;5048230;28;20386;-70
2024/01/19 06:13:38;;;;;;;;;;;;;;;-3.07;100.00;101704.69;5055087;28;19927;-70
2024/01/19 06:16:03;;;;;;;;;;;;;;;-3.01;100.00;101707.59;5068676;28;19912;-69
2024/01/19 06:18:29;;;;;;;;;;;;;;;-2.98;100.00;101707.78;5072864;28;20022;-69
2024/01/19 06:20:55;;;;;;;;;;;;;;;-2.98;100.00;101708.66;5049423;28;19928;-70
2024/01/19 06:23:20;;;;;;;;;;;;;;;-3.00;100.00;101704.25;5046491;28;19959;-69
2024/01/19 06:25:48;;;;;;;;;;;;;;;-3.02;100.00;101722.09;5072179;28;19924;-69
2024/01/19 06:28:13;;;;;;;;;;;;;;;-3.07;100.00;101726.09;5055113;28;20028;-69
2024/01/19 06:30:39;;;;;;;;;;;;;;;-3.11;100.00;101720.69;5052851;28;20350;-69
2024/01/19 06:33:05;;;;;;;;;;;;;;;-3.11;100.00;101718.13;5072800;28;19938;-69
2024/01/19 06:35:31;;;;;;;;;;;;;;;-3.10;100.00;101717.31;5051272;28;19928;-69
2024/01/19 06:37:56;;;;;;;;;;;;;;;-3.06;100.00;101737.22;5066968;28;19923;-69
2024/01/19 06:40:22;;;;;;;;;;;;;;;-3.07;100.00;101728.66;5053129;28;19927;-70
2024/01/19 06:42:49;;;;;;;;;;;;;;;-3.06;100.00;101727.88;5052746;28;20407;-70
2024/01/19 06:45:18;;;;;;;;;;;;;;;-3.10;100.00;101731.03;5050116;28;19924;-70
2024/01/19 06:47:47;;;;;;;;;;;;;;;-3.14;100.00;101732.53;5076459;28;19916;-70
2024/01/19 06:50:13;;;;;;;;;;;;;;;-3.20;100.00;101732.19;5075500;28;19920;-70
2024/01/19 06:52:38;;;;;;;;;;;;;;;-3.32;100.00;101721.19;5059058;28;20042;-70
2024/01/19 06:55:04;;;;;;;;;;;;;;;-3.42;100.00;101729.13;5059348;28;19923;-70
2024/01/19 06:57:29;;;;;;;;;;;;;;;-3.51;100.00;101739.72;5073634;28;20331;-70
2024/01/19 06:59:54;;;;;;;;;;;;;;;-3.61;100.00;101739.97;5051126;28;19924;-70
2024/01/19 07:02:23;;;;;;;;;;;;;;;-3.68;100.00;101733.59;5059657;28;19924;-70
2024/01/19 07:04:48;;;;;;;;;;;;;;;-3.74;100.00;101748.59;5073248;28;20419;-70
2024/01/19 07:07:13;;;;;;;;;;;;;;;-3.79;100.00;101747.41;5054567;28;20024;-70
2024/01/19 07:09:39;;;;;;;;;;;;;;;-3.87;100.00;101758.06;5058386;28;19920;-70
2024/01/19 07:12:04;;;;;;;;;;;;;;;-3.91;100.00;101768.91;5070459;28;19923;-70
2024/01/19 07:14:29;;;;;;;;;;;;;;;-3.94;100.00;101768.72;5059956;28;19984;-70
2024/01/19 07:16:55;;;;;;;;;;;;;;;-3.98;100.00;101769.34;5058994;28;19928;-70
2024/01/19 07:19:23;;;;;;;;;;;;;;;-4.03;100.00;101779.28;5057672;28;19920;-70
2024/01/19 07:21:50;;;;;;;;;;;;;;;-4.04;100.00;101790.34;5055483;28;19927;-70
2024/01/19 07:24:19;;;;;;;;;;;;;;;-4.08;100.00;101787.47;5056609;28;19920;-70
2024/01/19 07:26:45;;;;;;;;;;;;;;;-4.11;100.00;101795.84;5048171;28;19933;-70
2024/01/19 07:29:11;;;;;;;;;;;;;;;-4.15;100.00;101793.91;5053826;28;19928;-70
2024/01/19 07:31:36;;;;;;;;;;;;;;;-4.20;100.00;101796.16;5068165;28;20265;-70
2024/01/19 07:34:05;;;;;;;;;;;;;;;-4.19;100.00;101803.03;5055282;28;20458;-70
2024/01/19 07:36:31;;;;;;;;;;;;;;;-4.22;100.00;101802.84;5060695;28;20269;-70
2024/01/19 07:38:57;;;;;;;;;;;;;;;-4.25;100.00;101802.66;5054845;28;19959;-70
2024/01/19 07:41:22;;;;;;;;;;;;;;;-4.26;100.00;101806.00;5066484;28;19981;-70
2024/01/19 07:43:47;;;;;;;;;;;;;;;-4.26;100.00;101811.13;5070318;28;19924;-70
2024/01/19 07:46:14;;;;;;;;;;;;;;;-4.27;100.00;101816.16;5099091;23;19964;-69
2024/01/19 07:48:40;;;;;;;;;;;;;;;-4.30;100.00;101814.25;5034165;28;20024;-69
2024/01/19 07:51:09;;;;;;;;;;;;;;;-4.29;100.00;101816.03;5012116;28;20020;-70
2024/01/19 07:53:34;;;;;;;;;;;;;;;-4.27;100.00;101814.47;5074102;23;19951;-69
2024/01/19 07:55:59;;;;;;;;;;;;;;;-4.22;100.00;101822.47;5064738;28;20366;-70
2024/01/19 07:58:26;;;;;;;;;;;;;;;-4.19;100.00;101823.53;5054938;28;19916;-70
2024/01/19 08:00:51;;;;;;;;;;;;;;;-4.11;100.00;101835.91;5040163;28;19970;-69
2024/01/19 08:03:19;;;;;;;;;;;;;;;-4.07;100.00;101832.78;5033428;28;19925;-69
2024/01/19 08:05:44;;;;;;;;;;;;;;;-3.98;100.00;101838.47;5050133;28;19925;-70
2024/01/19 08:08:09;;;;;;;;;;;;;;;-3.92;100.00;101837.97;5032093;28;20249;-69
2024/01/19 08:10:36;;;;;;;;;;;;;;;-3.83;100.00;101843.69;5045511;28;20082;-69
2024/01/19 08:13:01;;;;;;;;;;;;;;;-3.75;100.00;101849.28;5054952;28;20069;-69
2024/01/19 08:15:28;;;;;;;;;;;;;;;-3.66;100.00;101847.31;5195079;23;20034;-69
2024/01/19 08:17:53;;;;;;;;;;;;;;;-3.58;100.00;101851.22;5048616;28;19932;-70
2024/01/19 08:20:19;;;;;;;;;;;;;;;-3.46;100.00;101860.44;5094945;22;19924;-70
2024/01/19 08:22:44;;;;;;;;;;;;;;;-3.37;100.00;101854.22;5036649;28;19929;-70
2024/01/19 08:25:09;;;;;;;;;;;;;;;-3.24;100.00;101862.66;5080448;22;19924;-69
2024/01/19 08:27:35;;;;;;;;;;;;;;;-3.13;100.00;101853.94;5086253;22;19935;-69
2024/01/19 08:30:03;;;;;;;;;;;;;;;-3.04;100.00;101856.16;5068517;23;19932;-69
2024/01/19 08:32:28;;;;;;;;;;;;;;;-2.91;100.00;101868.94;5060171;28;19921;-69
2024/01/19 08:34:53;;;;;;;;;;;;;;;-2.82;100.00;101859.19;5072791;23;19931;-69
2024/01/19 08:39:44;;;;;;;;;;;;;;;-1.63;100.00;101870.16;5177138;22;20342;-69
2024/01/19 08:42:10;;;;;;;;;;;;;;;-0.42;100.00;101867.84;5073283;28;19923;-70
2024/01/19 08:44:35;;;;;;;;;;;;;;;-0.03;99.37;101878.34;5061618;28;19924;-70
2024/01/19 08:47:00;;;;;;;;;;;;;;;-0.24;98.26;101885.03;5064520;28;20026;-70
2024/01/19 08:52:01;;;;;;;;;;;;;;;-0.64;97.75;101880.47;5000816;26;20388;-72
2024/01/19 08:54:27;;;;;;;;;;;;;;;-0.65;97.59;101887.28;5043837;28;19931;-72
2024/01/19 08:56:54;;;;;;;;;;;;;;;-0.15;97.82;101895.78;5062721;28;20019;-72
2024/01/19 08:59:19;;;;;;;;;;;;;;;1.11;95.52;101889.53;5056243;28;19916;-73
2024/01/19 09:01:46;;;;;;;;;;;;;;;2.76;93.18;101891.88;5031476;28;20114;-73
2024/01/19 09:04:11;;;;;;;;;;;;;;;4.47;90.88;101896.72;5054734;28;19942;-73
2024/01/19 09:06:36;;;;;;;;;;;;;;;6.04;88.29;101899.25;5054655;28;20011;-73
2024/01/19 09:09:03;;;;;;;;;;;;;;;7.44;87.02;101888.25;5037122;28;20007;-73
2024/01/19 09:11:30;;;;;;;;;;;;;;;8.48;82.11;101903.88;5037499;28;19931;-73
2024/01/19 09:13:56;;;;;;;;;;;;;;;7.84;79.31;101915.03;5051293;28;19912;-74
2024/01/19 09:16:21;;;;;;;;;;;;;;;6.84;80.33;101916.66;5046719;28;19921;-74
2024/01/19 09:18:46;;;;;;;;;;;;;;;5.97;80.46;101920.72;5054022;28;20394;-73
2024/01/19 09:21:17;;;;;;;;;;;;;;;5.13;79.71;101921.13;5034607;28;19923;-74
2024/01/19 09:23:42;;;;;;;;;;;;;;;4.56;82.58;101927.28;5049596;28;19955;-73
2024/01/19 09:26:08;;;;;;;;;;;;;;;4.10;82.52;101931.03;5037782;28;19947;-73
2024/01/19 09:28:34;;;;;;;;;;;;;;;3.83;84.70;101941.38;5053036;28;19930;-74
2024/01/19 09:31:00;;;;;;;;;;;;;;;3.68;85.80;101937.44;5035422;28;19921;-73
2024/01/19 09:33:25;;;;;;;;;;;;;;;3.64;86.03;101945.94;5042524;28;19986;-73
2024/01/19 09:35:50;;;;;;;;;;;;;;;3.62;85.60;101952.75;5052447;28;19921;-74
2024/01/19 09:38:16;;;;;;;;;;;;;;;3.56;86.12;101947.38;5042337;28;19924;-74
2024/01/19 09:40:44;;;;;;;;;;;;;;;3.72;86.68;101954.84;5037881;28;19917;-74
2024/01/19 09:43:11;;;;;;;;;;;;;;;5.19;83.53;101954.22;5048262;28;20364;-74
2024/01/19 09:45:40;;;;;;;;;;;;;;;7.28;80.99;101954.88;5048186;28;19917;-74
2024/01/19 09:48:08;;;;;;;;;;;;;;;9.16;75.05;101957.00;5053255;28;20424;-70
2024/01/19 09:50:35;;;;;;;;;;;;;;;10.58;70.16;101969.66;5053652;28;19916;-69
2024/01/19 09:53:00;;;;;;;;;;;;;;;11.59;65.27;101968.34;5053111;28;20263;-69
2024/01/19 09:55:29;;;;;;;;;;;;;;;12.75;64.96;101970.09;5037192;28;19967;-69
2024/01/19 09:57:55;;;;;;;;;;;;;;;13.63;62.02;101969.72;5035913;28;19917;-69
2024/01/19 10:00:21;;;;;;;;;;;;;;;14.37;59.57;101979.69;5036632;28;19921;-70
2024/01/19 10:02:49;;;;;;;;;;;;;;;14.99;59.79;101979.06;5036664;28;19917;-69
2024/01/19 10:05:15;;;;;;;;;;;;;;;15.59;57.55;101976.50;5037389;28;19962;-69
2024/01/19 10:07:48;;;;;;;;;;;;;;;15.89;57.94;101984.91;5033321;28;20021;-69
2024/01/19 10:10:15;;;;;;;;;;;;;;;16.25;58.21;101994.91;5041195;28;20295;-69
2024/01/19 10:12:42;;;;;;;;;;;;;;;16.44;52.59;101991.00;5055522;28;19912;-70
2024/01/19 10:15:10;;;;;;;;;;;;;;;16.92;56.66;102003.41;5058229;28;20015;-70
2024/01/19 10:17:35;;;;;;;;;;;;;;;17.75;51.94;101999.88;5057377;28;19924;-69
2024/01/19 10:20:00;;;;;;;;;;;;;;;18.72;52.84;102002.75;5057961;28;20252;-70
2024/01/19 10:22:27;;;;;;;;;;;;;;;19.25;51.96;101998.63;5040627;28;19970;-69
2024/01/19 10:25:00;;;;;;;;;;;;;;;19.45;49.73;101996.25;5058166;28;20327;-70
2024/01/19 10:27:38;;;;;;;;;;;;;;;19.61;52.53;101991.34;5074421;28;20468;-70
2024/01/19 10:30:09;;;;;;;;;;;;;;;20.08;45.62;101996.03;5047934;28;19916;-70
2024/01/19 10:32:35;;;;;;;;;;;;;;;20.29;49.15;101996.25;5056968;28;19966;-70
2024/01/19 10:35:08;;;;;;;;;;;;;;;19.51;50.57;101992.50;5030705;28;19925;-69
2024/01/19 10:37:33;;;;;;;;;;;;;;;19.58;46.27;102002.03;5055544;28;19928;-76
2024/01/19 10:40:12;;;;;;;;;;;;;;;19.89;50.72;102004.63;5046273;28;20288;-77
2024/01/19 10:42:42;;;;;;;;;;;;;;;20.43;50.04;102002.84;5043036;28;19923;-77
2024/01/19 10:45:18;;;;;;;;;;;;;;;20.89;45.67;101999.50;5075432;28;19952;-77
2024/01/19 10:47:45;;;;;;;;;;;;;;;21.40;44.71;102008.22;5056794;28;19924;-77
2024/01/19 10:50:11;;;;;;;;;;;;;;;22.00;50.89;102010.34;5041155;28;20260;-77
2024/01/19 10:52:38;;;;;;;;;;;;;;;22.31;47.85;102008.13;5056786;28;19943;-77
2024/01/19 10:55:04;;;;;;;;;;;;;;;22.12;39.71;102000.03;5051291;28;19932;-77
2024/01/19 10:57:29;;;;;;;;;;;;;;;22.26;46.90;102006.56;5048226;28;19917;-77
2024/01/19 10:59:54;;;;;;;;;;;;;;;22.61;44.03;102010.44;5036488;28;20296;-77
2024/01/19 11:02:20;;;;;;;;;;;;;;;22.86;48.61;102016.47;5031478;28;20273;-77
2024/01/19 11:04:45;;;;;;;;;;;;;;;22.63;44.18;102015.69;5052646;28;20043;-76
2024/01/19 11:07:11;;;;;;;;;;;;;;;23.24;41.46;102012.06;5056586;28;20360;-76
2024/01/19 11:09:36;;;;;;;;;;;;;;;23.71;41.15;102010.75;5039146;28;19971;-76
2024/01/19 11:12:02;;;;;;;;;;;;;;;23.58;40.33;102012.28;5055692;28;19912;-76
2024/01/19 11:14:28;;;;;;;;;;;;;;;23.71;42.83;102008.06;5034057;28;19921;-76
2024/01/19 11:16:54;;;;;;;;;;;;;;;23.42;45.11;102009.47;5039898;28;19928;-77
2024/01/19 11:19:21;;;;;;;;;;;;;;;23.23;44.22;102010.34;5056828;28;19919;-76
2024/01/19 11:21:46;;;;;;;;;;;;;;;22.94;37.85;102012.53;5056197;28;19956;-76
2024/01/19 11:24:14;;;;;;;;;;;;;;;22.81;46.66;102024.69;5056464;28;19955;-77
2024/01/19 11:26:45;;;;;;;;;;;;;;;23.22;47.33;102008.63;5046974;28;20019;-76
2024/01/19 11:29:28;;;;;;;;;;;;;;;23.31;46.33;101996.63;5043501;28;19925;-76
2024/01/19 11:31:54;;;;;;;;;;;;;;;22.78;35.18;102004.31;5056033;28;19917;-76
2024/01/19 11:34:39;;;;;;;;;;;;;;;22.12;44.48;101994.69;5039937;28;19916;-76
2024/01/19 11:37:04;;;;;;;;;;;;;;;21.57;44.61;101996.94;5056124;28;19919;-76
2024/01/19 11:39:40;;;;;;;;;;;;;;;21.08;41.60;101997.00;5050325;28;19913;-76
2024/01/19 11:42:06;;;;;;;;;;;;;;;20.19;40.42;102004.53;5037341;28;19974;-76
2024/01/19 11:44:45;;;;;;;;;;;;;;;20.04;51.31;102015.69;5056624;28;20359;-75
2024/01/19 11:47:30;;;;;;;;;;;;;;;19.61;45.56;102003.72;5055120;28;20283;-76
2024/01/19 11:49:55;;;;;;;;;;;;;;;19.87;47.90;102009.13;5042345;28;19921;-75
2024/01/19 11:52:21;;;;;;;;;;;;;;;20.11;49.18;102011.03;5034727;28;20003;-76
2024/01/19 11:54:46;;;;;;;;;;;;;;;20.21;49.12;102007.16;5050078;28;20019;-76
2024/01/19 11:57:18;;;;;;;;;;;;;;;19.85;42.68;102010.09;5069332;28;19916;-76
2024/01/19 11:59:44;;;;;;;;;;;;;;;19.73;48.13;102012.19;5039479;28;19950;-75
2024/01/19 12:02:22;;;;;;;;;;;;;;;19.70;42.97;102016.75;5073574;28;20011;-76
2024/01/19 12:04:47;;;;;;;;;;;;;;;19.57;45.39;102021.59;5056482;28;20260;-76
2024/01/19 12:07:20;;;;;;;;;;;;;;;19.37;43.62;102025.72;5049350;28;19927;-75
2024/01/19 12:09:45;;;;;;;;;;;;;;;19.65;46.96;102019.56;5029170;28;19921;-76
2024/01/19 12:12:12;;;;;;;;;;;;;;;19.73;44.46;102025.50;5038390;28;20294;-75
2024/01/19 12:14:37;;;;;;;;;;;;;;;19.79;43.81;102024.47;5056155;28;19916;-75
2024/01/19 12:17:02;;;;;;;;;;;;;;;20.20;44.83;102024.03;5055645;28;19921;-76
2024/01/19 12:19:28;;;;;;;;;;;;;;;20.36;41.66;102027.94;5055805;28;19924;-76
2024/01/19 12:21:56;;;;;;;;;;;;;;;20.38;43.42;102020.75;5038562;28;19924;-75
2024/01/19 12:24:22;;;;;;;;;;;;;;;20.14;44.12;102027.78;5038166;28;19934;-75
2024/01/19 12:26:50;;;;;;;;;;;;;;;19.83;44.18;102027.91;5038413;28;19921;-76
2024/01/19 12:29:31;;;;;;;;;;;;;;;19.01;39.02;102025.00;5055477;28;19920;-76
2024/01/19 12:32:09;;;;;;;;;;;;;;;19.16;39.94;102029.00;5038245;28;20435;-75